Auction Buyer/Seller Tools

Zero Bids search

Find items with zero bids on eBay
This tool allows you to find more on eBay by finding items with zero bids only.
You might be the only bidder at the lowest price!
You can type a keyword in the field below. If you are getting too many unwanted results, then you can type unwanted keywords in "Exclude" field, this way those will be excluded from your results.

Search Keywords should be used as one single keyword or a short phrase (without quotes).
Exclude Keywords must be separated by Space or Comma.
Search Keywords:
Exclude Keywords:  
Digital Delivery items only
Free Shipping items only
Gallery items only
"Get It Fast" items only
Items with "Gift" option only
Items with quantity more than 1
Items with picture only
Current bid to
Condition:
Seller:
Country:
Item #TitleBidsCur.BidTime Left
324065324842 NOKIA Microsoft Mobile ADAPTER 0 USD 3.0 00:03:23
153713603195 Nokia 1661-2 MOBILE PHONE FOR SPARES REPAIRS PARTS 0 USD 6.0 00:08:39
283832108149 Nokia 9300i communicator unlocked GSM wlan wifi 0 USD 29.0 00:22:03
293502454203 West Virginia Mountaineers Nokia Sugarbowl 2006 Snapback Cap Hat 0 USD 14.84 00:32:06
153713627735 Nokia 2630c MOBILE PHONE WORKING TESTED UNLOCKED 0 USD 16.0 00:32:50
254191010875 PGA Tour Men's Navy Blue Lined Windbreaker w/AT&T and Nokia Logos - S, EUC 0 USD 10.99 00:35:05
153674372427 Nokia 2610 - Black (Cincinnati Bell) Cellular Phone Very Good Used Fast Shipping 0 USD 22.69 00:36:46
274252633856 Nokia Lumia 640 XL RM-1063 AT&T GSM Unlocked 4G LTE Windows Mobile Smartphone 1 USD 59.99 00:44:52
264625461459 Vintage Nokia 252 Cell Phone With Original Box & Manual For Parts Or Repair 0 USD 18.0 00:49:59
164070076920 Nokia (5.3V/0.5A) AC Adapter Power Supply - Black (ACP-8U) 0 USD 4.99 00:51:02
362956591060 MOTOROLA NOKIA SIEMENS SGLN6050AC MCC1X-32B/96R CHANNEL CARD MODULE 0 USD 24.98 00:51:14
293526797635 MOTOROLA NOKIA SIEMENS SGLN6312BB MCC-DO REV.A MULTI-CHANNEL CONTROLLER CARD 0 USD 24.98 00:51:19
333559854092 MOTOROLA NOKIA SIEMENS SGLN4132HF ASSY PWA SC4812 CHRONUS SYNC CARD 0 USD 24.98 00:51:24
324120153949 Nokia Steel HR, 36 mm, stainless steel case, water-resistant, long-life battery 0 USD 29.8 00:52:42
293143748687 USER MANUAL For NOKIA Cell Phone Model 6162 0 USD 3.0 00:53:14
293530074830 Nokia N800 Internet Tablet 0 USD 25.0 00:57:31
182949200624 ROGERS & CHATR NOKIA 6126 MOBILE CELL PHONE CELLULAR FLIP FLOP CAMERA WORKING 0 USD 43.22 01:00:52
264183482892 New - Nokia Fatboy DT-901 Wireless Charging Pillow Black DT901 *Light Use* 0 USD 7.0 01:23:34
283443205288 Nokia BMH-3 3.6v Nickel Metal Hydride Battery for Nokia Devices - Black 1 USD 4.99 01:28:23
272547975898 NOKIA ACP-7U POWER SUPPLY ADAPTER, TESTED & WORKING, PERFECT CONDITION 0 USD 3.8 01:30:33
303434911432 Nokia 5130 XpressMusic Original Unlocked Mobile Phone Bluetooth 3G Refurbished 0 USD 32.0 01:31:25
303434911432 Nokia 5130 XpressMusic Original Unlocked Mobile Phone Bluetooth 3G Refurbished 1 USD 35.0 01:31:25
143204366652 Nokia CIG Adapter Car Charger 5100/6100 Series Dual Saver NOK-252/6110 0 USD 4.95 01:35:01
372685111769 Nokia Checkpoint IP390 4-Port Gigabit Network Firewall EM7500 w/1x 10/100 Module 1 USD 29.99 01:38:05
153478027184 BMW OEM E36 NOKIA SUBWOOFER TRUNK DECK SPEAKER SET 4IN LEFT RIGHT PARTS REPAIR 0 USD 24.95 01:39:40
163679080843 BMW OEM E36 NOKIA SUBWOOFER TRUNK DECK SPEAKER 4IN PASSENGER RIGHT PARTS REPAIR 0 USD 17.95 01:42:06
251180298439 Genuine Original Nokia N86 Chassis Housing Middle Speaker& Volume Button 9 USD 1.83 01:44:10
290808254439 Genuine Nokia 6300 6301 Brown Back Housing Fascia Cover With Mic & Power Socket 41 USD 3.06 01:45:42
163894877292 READ BEFORE YOU BUY Nokia Astound C7 Silver (Red Pocket) Cell Phone Good Used 0 USD 28.36 01:49:44
153882297920 NOKIA LUMIA 925 - T-MOBIL 0 USD 22.99 01:53:09
142499436144 Nokia Lumia 920.2 (RM-820) 32GB - Red - Windows - AT&T - Open Box - READ BELOW 0 USD 75.95 01:55:59
182949312839 PINK BROWN NOKIA 8390 UNLOCKED GSM WIRELESS CELL PHONE FIDO ROGERS CHATR MOBILE 0 USD 48.22 02:01:56
293530127981 nokia ngage n*gage as cd software 0 USD 15.99 02:06:53
163722770757 READ BEFORE YOU BUY Nokia Lumia 435 White (Red Pocket) Smartphone Excellent Used 0 USD 25.54 02:09:12
123408686574 Nokia 2310 RM-189 - White Unlocked Used mobile cellphone phone 0 USD 26.39 02:09:28
123062882481 Nokia 2600 RM-340 - Black Unlocked Used Cellular Phone 0 USD 26.39 02:24:34
223473665262 Genuine Nokia ACP-7E Mains Charger for Nokia Phones with the 3.5 mm Thick Pin 0 USD 2.0 02:24:56
124074315863 Vintage Nokia Cellular Wall Chargers Models: ACP-8U/ACP-7U 1PCS EACH 3.5mm tip 0 USD 7.5 02:37:26
274298260251 OEM *No Buttons Battery Cover Back Coolpad Lumia 3310A Parts #2079 0 USD 14.95 02:39:44
283806476371 OEM Antenna Wire Coax Cable Coolpad Lumia 3310A Parts #2079 0 USD 8.95 02:40:07
274298262742 OEM Battery CPLD-189 Coolpad Lumia 3310A Parts #2079 0 USD 24.95 02:40:34
274298263523 OEM Charger Port Charging USB Coolpad Lumia 3310A Parts #2079 1 USD 28.95 02:41:09
274298264469 OEM Flex Cable Ribbon Coolpad Lumia 3310A Parts #2079 0 USD 11.95 02:41:40
274298265178 OEM Front Selfie Camera Coolpad Lumia 3310A Parts #2079 0 USD 8.95 02:42:33
283806478032 OEM LCD Display Screen Digitizer Coolpad Lumia 3310A Parts #2079-B+ 0 USD 29.95 02:43:20
283806478607 OEM LCD Display Screen Digitizer Coolpad Lumia 3310A Parts #2079-C 0 USD 27.95 02:44:10
283806478835 OEM Loud Speaker Loudspeaker Coolpad Lumia 3310A Parts #2079 0 USD 14.95 02:44:37
400878495991 Generic Nokia car charger. 0 USD 1.99 02:45:06
283806479142 OEM Mid Frame Camera Lens Coolpad Lumia 3310A Parts #2079 0 USD 14.95 02:45:12
264684075420 StarTrek Nokia N800 Internet Tablet 250 MB WiFi Bluetooth Camera (2 each 2 GB SD 0 USD 40.0 02:45:42
264684075421 Nokia N800 Navigation Kit 0 USD 20.0 02:45:42
274298270030 OEM Motherboard Logic Board 8GB Boost Mobile Coolpad Lumia 3310A Parts #2079-A 0 USD 19.95 02:45:42
283806481247 OEM Power Volume Buttons Flex Coolpad Lumia 3310A Parts #2079 0 USD 11.95 02:46:17
153713768674 Nokia 2 V ta-1136 0 USD 29.99 02:46:57
283806481552 OEM Power Volume Buttons Keys Coolpad Lumia 3310A Parts #2079 0 USD 11.95 02:47:00
283806481938 OEM Rear Main Back Camera Coolpad Lumia 3310A Parts #2079 0 USD 11.95 02:47:46
283806482174 OEM Screws Complete Set Coolpad Lumia 3310A Parts #2079 0 USD 8.95 02:48:09
254445431325 LOT OF 10 OLDER BAR & FLIP PHONES, PARTS/REPAIR, Samsung, LG Alcatel Nokia 0 USD 12.95 02:51:17
183943159072 NOKIA 2 TA-1035 - (UNLOCKED CARRIER) CLEAN ESN, WORKS, PLEASE READ!! 32018 0 USD 74.39 02:52:36
324065455343 Nokia AC Adaptor Wall Plug Charger ACP-7U 0 USD 12.0 03:00:01
223964057950 Nokia N810 NSERIES Portable WI-FI Internet Tablet - Open Box Excellent Cond 0 USD 60.0 03:03:05
392673936631 T3 UK Technology Magazine Christmas 2002 Bluetooth Nokia Freeview 012220AME2 0 USD 26.98 03:09:34
383140098518 (GI) Nokia AC-3U Home Wall Charger C7 E5 E66 E50 E61 E61i E62 E63 E71 E71x E75 0 USD 5.95 03:15:55
291654306790 Nokia 1200 1208 Battery Door Back Original Cover Housing Case Mint Gray OEM 20 USD 4.72 03:16:48
163637165963 READ BEFORE YOU BUY Nokia 6263 Black (Red Pocket) Cellular Phone Fair/Poor Used 0 USD 15.09 03:18:21
274130524670 Nokia Team Promo Tracksuit Bottoms | Vintage 90s Retro Trousers Sportswear 0 USD 73.55 03:20:36
233487525545 3 Nokia N-Gage Games POCKET KINGDOM - TOMB RAIDER - REQUIEM OF HELL - GAMES ONLY 0 USD 36.99 03:25:33
223964080106 Nokia N810 NSERIES Portable WI-FI Internet Tablet - good condition 0 USD 58.0 03:26:22
254555749747 Nokia X Series X2-01 - Black (T-Mobile) Cellular Phone 0 USD 15.0 03:29:02
153442495842 Formal 1 car badge Nokia 0 USD 4.9 03:29:08
202951247612 Nokia 3395 Vintage Mobile Cell Flip Phone Cingular Gray 0 USD 12.0 03:33:54
184072673254 AT&T Nokia Lumia 920 32GB (Yellow) Smartphone Excellent condition 0 USD 44.0 03:37:23
223961903434 Nokia 6.1 TA-1045 / 5.5" / 32GB / Unlocked 1 USD 70.0 03:38:17
254533256649 Nokia 3585i -Rare Vintage Prop Antique Cell Phone - Works - 0 USD 28.95 03:42:34
193399316240 Nokia 6600 Vintage Cell Cellular Unlocked Mobile Phone Classic Collectible Rare! 1 USD 0.99 03:48:38
163722864119 FAIR Withings/Nokia Body - Smart Body Composition Wi-Fi Ditial Scale - Black 0 USD 71.99 03:50:34
324095323708 Nokia 6030 Speaker Dualband GSM Messaging FM Radio AT&T Cell Phones - Set Of 2 0 USD 17.95 03:50:58
153882388266 BUSTED Nokia 310 phone cover McBUSTED James Bourne Charlie Simpson matt willis 0 USD 4.89 03:51:08
173678918895 GENUINE NOKIA BL-4J BATTERY FOR LUMIA 620 C6 C6-00 5800 5230 1300mAh Used 14 USD 1.65 03:52:15
113354360370 Nokia 3510i - Blue (Unlocked) Cellular Phone 0 USD 59.99 03:54:04
292670570892 Nokia ACP-7U 120V 4.8VA Output 3.7V DC 0.35A Power Adapter Travel Charger 0 USD 9.95 03:55:15
293530205156 NOKIA Pureview ZEISS SMARTPHONE 0 USD 64.0 03:58:16
202948212377 Nokia 6510 Vintage Cellular Mobile Phone Cellphone Classic Collectible + Extras! 0 USD 0.99 04:03:51
184072701596 NOKIA LUMIA 810 - (T-MOBILE) CLEAN ESN, UNTESTED, PLEASE READ!! 33973 0 USD 13.94 04:07:02
184072704879 NOKIA LUMIA 810 - (T-MOBILE) CLEAN ESN, UNTESTED, PLEASE READ!! 33974 0 USD 13.94 04:07:54
174118064908 NOKIA LUMIA 810 - (T-MOBILE) CLEAN ESN, UNTESTED, PLEASE READ!! 33975 0 USD 13.94 04:08:41
193144519073 Nokia AC Adapter Model ACP-7U Input 120VAC Output 3.7VDC 0 USD 7.0 04:10:38
233544112202 Nokia Charger ACP-7U Input :AC 120V 60Hz, 45mA Output DC 3.7 V. 350mA 0 USD 3.2 04:13:44
174088196124 NOKIA 5800 XPRESS MUSIC - (UNKNOWN) CLEAN ESN, UNTESTED, PLEASE READ!! 21576 0 USD 13.94 04:14:22
233544115734 Nokia Tape: ACP-7U Direct Plug-In Transformer Unit Input: 120V AC/60Hz/4.8VA 0 USD 3.8 04:18:52
233425720083 stereo headset Nokia WH-203 Micro-USB for 8800 Arte,6700,6600,6500c 0 USD 16.0 04:20:22
174118093836 NOKIA LUMIA 435 - (UNKNOWN CARRIER) CLEAN ESN, UNTESTED, PLEASE READ!! 33979 0 USD 6.99 04:32:07
184072733465 NOKIA LUMIA 435 - (UNKNOWN CARRIER) CLEAN ESN, UNTESTED, PLEASE READ!! 33980 0 USD 6.99 04:33:20
133194608090 OEM NOKIA PUREVIEW 808 RM-807 REPLACEMENT AUDIO JACK CONTACT FLEX CABLE 0 USD 8.99 04:33:33
174088209516 Nokia ACP-7U Cell Phone Charger AC Power Supply Adapter 0 USD 10.0 04:34:02
184072734616 NOKIA LUMIA 635 - (UNKNOWN CARRIER) CLEAN ESN, UNTESTED, PLEASE READ!! 33981 0 USD 18.59 04:34:28
174118096004 NOKIA LUMIA 635 - (UNKNOWN CARRIER) CLEAN ESN, UNTESTED, PLEASE READ!! 33982 0 USD 18.59 04:35:26
184072736578 NOKIA LUMIA 635 - (UNKNOWN CARRIER) CLEAN ESN, UNTESTED, PLEASE READ!! 33983 0 USD 18.59 04:37:06
274252926362 Nokia Lumia 635 - 8GB - Matte Black (AT&T) Smartphone 0 USD 21.0 04:37:15
123826972881 Switchboard Bluetooth Phone Mercedes Q03 Nokia A2118205885 a 211 820 58 85 0 USD 45.3 04:43:29
Tools For Buyer
Misspelled and Typo Search
Zero Bids Search
Images Search


Find great deals on nokia at Shopzilla.com!
ads from Shopzilla,Inc